sensor_id;sensor_type;location;lat;lon;timestamp;P1;durP1;ratioP1;P2;durP2;ratioP2
77880;SDS011;67077;50.298;18.996;2023-02-18T00:01:56;14.20;;;8.10;;
77880;SDS011;67077;50.298;18.996;2023-02-18T00:04:24;12.60;;;7.50;;
77880;SDS011;67077;50.298;18.996;2023-02-18T00:06:53;15.10;;;7.40;;
77880;SDS011;67077;50.298;18.996;2023-02-18T00:09:21;14.10;;;7.10;;
77880;SDS011;67077;50.298;18.996;2023-02-18T00:11:49;14.30;;;7.30;;
77880;SDS011;67077;50.298;18.996;2023-02-18T00:14:18;13.30;;;6.50;;
77880;SDS011;67077;50.298;18.996;2023-02-18T00:16:46;13.50;;;7.10;;
77880;SDS011;67077;50.298;18.996;2023-02-18T00:19:16;11.00;;;6.30;;
77880;SDS011;67077;50.298;18.996;2023-02-18T00:21:47;10.80;;;6.70;;
77880;SDS011;67077;50.298;18.996;2023-02-18T00:24:15;11.40;;;6.20;;
77880;SDS011;67077;50.298;18.996;2023-02-18T00:26:45;10.80;;;6.60;;
77880;SDS011;67077;50.298;18.996;2023-02-18T00:29:13;12.40;;;7.40;;
77880;SDS011;67077;50.298;18.996;2023-02-18T00:31:42;14.20;;;8.10;;
77880;SDS011;67077;50.298;18.996;2023-02-18T00:34:12;9.10;;;5.50;;
77880;SDS011;67077;50.298;18.996;2023-02-18T00:36:41;11.30;;;6.70;;
77880;SDS011;67077;50.298;18.996;2023-02-18T00:39:09;11.60;;;6.90;;
77880;SDS011;67077;50.298;18.996;2023-02-18T00:41:38;9.40;;;5.50;;
77880;SDS011;67077;50.298;18.996;2023-02-18T00:44:07;11.40;;;6.10;;
77880;SDS011;67077;50.298;18.996;2023-02-18T00:46:36;9.80;;;4.80;;
77880;SDS011;67077;50.298;18.996;2023-02-18T00:49:04;7.50;;;3.70;;
77880;SDS011;67077;50.298;18.996;2023-02-18T00:51:34;5.20;;;3.00;;
77880;SDS011;67077;50.298;18.996;2023-02-18T00:54:03;7.10;;;4.50;;
77880;SDS011;67077;50.298;18.996;2023-02-18T00:56:32;5.60;;;2.80;;
77880;SDS011;67077;50.298;18.996;2023-02-18T00:59:01;4.40;;;2.70;;
77880;SDS011;67077;50.298;18.996;2023-02-18T01:01:29;7.00;;;3.00;;
77880;SDS011;67077;50.298;18.996;2023-02-18T01:03:58;5.40;;;3.20;;
77880;SDS011;67077;50.298;18.996;2023-02-18T01:06:26;4.70;;;2.90;;
77880;SDS011;67077;50.298;18.996;2023-02-18T01:08:54;6.20;;;3.00;;
77880;SDS011;67077;50.298;18.996;2023-02-18T01:11:23;6.80;;;3.10;;
77880;SDS011;67077;50.298;18.996;2023-02-18T01:13:52;7.00;;;2.70;;
77880;SDS011;67077;50.298;18.996;2023-02-18T01:16:20;6.00;;;2.60;;
77880;SDS011;67077;50.298;18.996;2023-02-18T01:42:27;5.10;;;2.40;;
77880;SDS011;67077;50.298;18.996;2023-02-18T01:48:10;3.40;;;2.00;;
77880;SDS011;67077;50.298;18.996;2023-02-18T01:50:53;3.40;;;1.70;;
77880;SDS011;67077;50.298;18.996;2023-02-18T01:53:37;4.60;;;2.00;;
77880;SDS011;67077;50.298;18.996;2023-02-18T01:56:13;4.20;;;1.70;;
77880;SDS011;67077;50.298;18.996;2023-02-18T01:58:48;3.70;;;1.60;;
77880;SDS011;67077;50.298;18.996;2023-02-18T02:01:16;3.70;;;1.50;;
77880;SDS011;67077;50.298;18.996;2023-02-18T02:03:45;3.80;;;1.80;;
77880;SDS011;67077;50.298;18.996;2023-02-18T02:06:14;3.90;;;1.60;;
77880;SDS011;67077;50.298;18.996;2023-02-18T02:08:46;3.80;;;1.50;;
77880;SDS011;67077;50.298;18.996;2023-02-18T02:17:04;3.50;;;1.30;;
77880;SDS011;67077;50.298;18.996;2023-02-18T02:32:01;3.80;;;1.40;;
77880;SDS011;67077;50.298;18.996;2023-02-18T02:48:41;5.20;;;1.70;;
77880;SDS011;67077;50.298;18.996;2023-02-18T02:51:23;4.90;;;1.40;;
77880;SDS011;67077;50.298;18.996;2023-02-18T02:54:15;4.40;;;1.70;;
77880;SDS011;67077;50.298;18.996;2023-02-18T02:56:44;4.80;;;1.70;;
77880;SDS011;67077;50.298;18.996;2023-02-18T02:59:13;4.40;;;1.80;;
77880;SDS011;67077;50.298;18.996;2023-02-18T03:18:56;5.50;;;1.80;;
77880;SDS011;67077;50.298;18.996;2023-02-18T03:21:44;4.50;;;1.90;;
77880;SDS011;67077;50.298;18.996;2023-02-18T03:24:32;5.70;;;1.70;;
77880;SDS011;67077;50.298;18.996;2023-02-18T03:27:19;4.30;;;1.80;;
77880;SDS011;67077;50.298;18.996;2023-02-18T03:29:53;5.70;;;1.60;;
77880;SDS011;67077;50.298;18.996;2023-02-18T03:32:27;4.10;;;1.60;;
77880;SDS011;67077;50.298;18.996;2023-02-18T03:34:59;2.20;;;1.30;;
77880;SDS011;67077;50.298;18.996;2023-02-18T03:37:31;3.00;;;1.40;;
77880;SDS011;67077;50.298;18.996;2023-02-18T03:40:05;3.40;;;1.50;;
77880;SDS011;67077;50.298;18.996;2023-02-18T03:42:35;4.80;;;1.70;;
77880;SDS011;67077;50.298;18.996;2023-02-18T03:45:03;5.30;;;1.70;;
77880;SDS011;67077;50.298;18.996;2023-02-18T03:47:32;5.70;;;1.70;;
77880;SDS011;67077;50.298;18.996;2023-02-18T03:50:00;3.40;;;1.70;;
77880;SDS011;67077;50.298;18.996;2023-02-18T03:52:28;5.10;;;1.90;;
77880;SDS011;67077;50.298;18.996;2023-02-18T03:54:56;3.40;;;1.60;;
77880;SDS011;67077;50.298;18.996;2023-02-18T03:57:24;3.70;;;1.60;;
77880;SDS011;67077;50.298;18.996;2023-02-18T03:59:52;4.60;;;1.80;;
77880;SDS011;67077;50.298;18.996;2023-02-18T04:02:20;7.10;;;1.80;;
77880;SDS011;67077;50.298;18.996;2023-02-18T04:04:48;4.80;;;1.90;;
77880;SDS011;67077;50.298;18.996;2023-02-18T04:07:17;5.40;;;1.90;;
77880;SDS011;67077;50.298;18.996;2023-02-18T04:09:45;6.30;;;2.10;;
77880;SDS011;67077;50.298;18.996;2023-02-18T04:12:13;5.30;;;2.00;;
77880;SDS011;67077;50.298;18.996;2023-02-18T04:14:41;4.30;;;1.50;;
77880;SDS011;67077;50.298;18.996;2023-02-18T04:17:09;5.60;;;2.00;;
77880;SDS011;67077;50.298;18.996;2023-02-18T04:19:37;3.70;;;1.90;;
77880;SDS011;67077;50.298;18.996;2023-02-18T04:22:06;3.90;;;1.70;;
77880;SDS011;67077;50.298;18.996;2023-02-18T04:24:34;4.70;;;1.70;;
77880;SDS011;67077;50.298;18.996;2023-02-18T04:27:02;4.00;;;1.70;;
77880;SDS011;67077;50.298;18.996;2023-02-18T04:29:30;3.70;;;1.40;;
77880;SDS011;67077;50.298;18.996;2023-02-18T04:31:58;4.00;;;1.40;;
77880;SDS011;67077;50.298;18.996;2023-02-18T04:34:26;5.90;;;1.30;;
77880;SDS011;67077;50.298;18.996;2023-02-18T04:36:54;2.20;;;1.10;;
77880;SDS011;67077;50.298;18.996;2023-02-18T04:39:24;3.40;;;1.10;;
77880;SDS011;67077;50.298;18.996;2023-02-18T04:41:52;3.60;;;1.30;;
77880;SDS011;67077;50.298;18.996;2023-02-18T04:44:20;3.50;;;1.30;;
77880;SDS011;67077;50.298;18.996;2023-02-18T04:46:48;3.10;;;1.60;;
77880;SDS011;67077;50.298;18.996;2023-02-18T04:49:16;4.00;;;1.60;;
77880;SDS011;67077;50.298;18.996;2023-02-18T04:51:44;4.20;;;1.60;;
77880;SDS011;67077;50.298;18.996;2023-02-18T04:54:12;6.40;;;1.40;;
77880;SDS011;67077;50.298;18.996;2023-02-18T04:56:40;5.20;;;2.10;;
77880;SDS011;67077;50.298;18.996;2023-02-18T04:59:08;8.00;;;2.50;;
77880;SDS011;67077;50.298;18.996;2023-02-18T05:01:36;3.80;;;1.70;;
77880;SDS011;67077;50.298;18.996;2023-02-18T05:04:04;3.30;;;1.50;;
77880;SDS011;67077;50.298;18.996;2023-02-18T05:06:33;2.40;;;1.20;;
77880;SDS011;67077;50.298;18.996;2023-02-18T05:09:02;2.90;;;1.20;;
77880;SDS011;67077;50.298;18.996;2023-02-18T05:11:30;2.20;;;1.00;;
77880;SDS011;67077;50.298;18.996;2023-02-18T05:13:58;3.80;;;1.40;;
77880;SDS011;67077;50.298;18.996;2023-02-18T05:16:27;3.00;;;1.10;;
77880;SDS011;67077;50.298;18.996;2023-02-18T05:18:55;2.40;;;1.20;;
77880;SDS011;67077;50.298;18.996;2023-02-18T05:21:23;2.60;;;1.20;;
77880;SDS011;67077;50.298;18.996;2023-02-18T05:23:51;3.10;;;1.50;;
77880;SDS011;67077;50.298;18.996;2023-02-18T05:26:19;2.60;;;1.20;;
77880;SDS011;67077;50.298;18.996;2023-02-18T05:28:47;5.00;;;1.40;;
77880;SDS011;67077;50.298;18.996;2023-02-18T05:31:17;3.50;;;1.30;;
77880;SDS011;67077;50.298;18.996;2023-02-18T05:33:45;3.60;;;1.60;;
77880;SDS011;67077;50.298;18.996;2023-02-18T05:36:13;3.60;;;1.60;;
77880;SDS011;67077;50.298;18.996;2023-02-18T05:38:41;5.40;;;1.40;;
77880;SDS011;67077;50.298;18.996;2023-02-18T05:41:09;3.50;;;1.40;;
77880;SDS011;67077;50.298;18.996;2023-02-18T05:43:37;3.70;;;1.40;;
77880;SDS011;67077;50.298;18.996;2023-02-18T05:46:23;4.20;;;1.50;;
77880;SDS011;67077;50.298;18.996;2023-02-18T05:48:51;4.00;;;1.50;;
77880;SDS011;67077;50.298;18.996;2023-02-18T05:51:19;5.10;;;1.70;;
77880;SDS011;67077;50.298;18.996;2023-02-18T05:53:47;5.10;;;1.70;;
77880;SDS011;67077;50.298;18.996;2023-02-18T05:56:15;4.80;;;1.60;;
77880;SDS011;67077;50.298;18.996;2023-02-18T05:58:43;3.80;;;1.40;;
77880;SDS011;67077;50.298;18.996;2023-02-18T06:01:11;6.90;;;1.80;;
77880;SDS011;67077;50.298;18.996;2023-02-18T06:03:40;3.40;;;1.50;;
77880;SDS011;67077;50.298;18.996;2023-02-18T06:06:08;4.70;;;1.70;;
77880;SDS011;67077;50.298;18.996;2023-02-18T06:08:36;4.20;;;1.70;;
77880;SDS011;67077;50.298;18.996;2023-02-18T06:11:04;4.20;;;1.80;;
77880;SDS011;67077;50.298;18.996;2023-02-18T06:13:32;3.50;;;1.70;;
77880;SDS011;67077;50.298;18.996;2023-02-18T06:16:00;4.30;;;1.70;;
77880;SDS011;67077;50.298;18.996;2023-02-18T06:18:28;3.60;;;1.60;;
77880;SDS011;67077;50.298;18.996;2023-02-18T06:20:56;2.60;;;1.40;;
77880;SDS011;67077;50.298;18.996;2023-02-18T06:23:25;3.50;;;1.50;;
77880;SDS011;67077;50.298;18.996;2023-02-18T06:25:53;3.30;;;1.40;;
77880;SDS011;67077;50.298;18.996;2023-02-18T06:28:21;4.90;;;1.70;;
77880;SDS011;67077;50.298;18.996;2023-02-18T06:30:49;3.90;;;1.70;;
77880;SDS011;67077;50.298;18.996;2023-02-18T06:33:17;6.30;;;1.80;;
77880;SDS011;67077;50.298;18.996;2023-02-18T06:35:53;3.00;;;1.40;;
77880;SDS011;67077;50.298;18.996;2023-02-18T06:38:23;4.00;;;1.60;;
77880;SDS011;67077;50.298;18.996;2023-02-18T06:40:52;3.90;;;1.50;;
77880;SDS011;67077;50.298;18.996;2023-02-18T06:43:21;2.70;;;1.50;;
77880;SDS011;67077;50.298;18.996;2023-02-18T06:45:50;4.90;;;1.70;;
77880;SDS011;67077;50.298;18.996;2023-02-18T06:48:19;4.60;;;2.10;;
77880;SDS011;67077;50.298;18.996;2023-02-18T06:50:48;4.60;;;2.00;;
77880;SDS011;67077;50.298;18.996;2023-02-18T06:53:16;6.30;;;2.00;;
77880;SDS011;67077;50.298;18.996;2023-02-18T06:55:44;3.80;;;1.80;;
77880;SDS011;67077;50.298;18.996;2023-02-18T06:58:13;5.40;;;2.00;;
77880;SDS011;67077;50.298;18.996;2023-02-18T07:00:41;3.50;;;1.70;;
77880;SDS011;67077;50.298;18.996;2023-02-18T07:03:11;4.10;;;2.10;;
77880;SDS011;67077;50.298;18.996;2023-02-18T07:05:44;2.60;;;1.30;;
77880;SDS011;67077;50.298;18.996;2023-02-18T07:08:12;3.00;;;1.40;;
77880;SDS011;67077;50.298;18.996;2023-02-18T07:10:40;6.60;;;2.60;;
77880;SDS011;67077;50.298;18.996;2023-02-18T07:13:10;4.50;;;1.70;;
77880;SDS011;67077;50.298;18.996;2023-02-18T07:15:39;3.50;;;1.60;;
77880;SDS011;67077;50.298;18.996;2023-02-18T07:18:07;3.90;;;1.70;;
77880;SDS011;67077;50.298;18.996;2023-02-18T07:20:35;4.00;;;1.60;;
77880;SDS011;67077;50.298;18.996;2023-02-18T07:23:03;4.10;;;1.50;;
77880;SDS011;67077;50.298;18.996;2023-02-18T07:25:31;4.00;;;1.60;;
77880;SDS011;67077;50.298;18.996;2023-02-18T07:28:00;3.10;;;1.50;;
77880;SDS011;67077;50.298;18.996;2023-02-18T07:30:28;4.00;;;1.60;;
77880;SDS011;67077;50.298;18.996;2023-02-18T07:32:56;4.20;;;1.80;;
77880;SDS011;67077;50.298;18.996;2023-02-18T07:35:24;4.20;;;1.60;;
77880;SDS011;67077;50.298;18.996;2023-02-18T07:37:52;4.60;;;1.70;;
77880;SDS011;67077;50.298;18.996;2023-02-18T07:40:20;6.60;;;2.40;;
77880;SDS011;67077;50.298;18.996;2023-02-18T07:42:49;6.70;;;2.50;;
77880;SDS011;67077;50.298;18.996;2023-02-18T07:45:17;6.00;;;2.30;;
77880;SDS011;67077;50.298;18.996;2023-02-18T07:47:45;4.40;;;2.20;;
77880;SDS011;67077;50.298;18.996;2023-02-18T07:50:13;6.90;;;2.80;;
77880;SDS011;67077;50.298;18.996;2023-02-18T07:52:41;7.30;;;3.30;;
77880;SDS011;67077;50.298;18.996;2023-02-18T07:55:09;7.70;;;3.30;;
77880;SDS011;67077;50.298;18.996;2023-02-18T07:57:37;5.70;;;2.70;;
77880;SDS011;67077;50.298;18.996;2023-02-18T08:00:23;6.10;;;2.30;;
77880;SDS011;67077;50.298;18.996;2023-02-18T08:02:52;4.80;;;2.00;;
77880;SDS011;67077;50.298;18.996;2023-02-18T08:05:20;4.80;;;2.00;;
77880;SDS011;67077;50.298;18.996;2023-02-18T08:07:49;5.30;;;1.80;;
77880;SDS011;67077;50.298;18.996;2023-02-18T08:10:16;3.50;;;1.80;;
77880;SDS011;67077;50.298;18.996;2023-02-18T08:12:44;4.30;;;1.90;;
77880;SDS011;67077;50.298;18.996;2023-02-18T08:15:12;5.90;;;2.40;;
77880;SDS011;67077;50.298;18.996;2023-02-18T08:17:40;4.90;;;2.00;;
77880;SDS011;67077;50.298;18.996;2023-02-18T08:20:09;3.20;;;1.60;;
77880;SDS011;67077;50.298;18.996;2023-02-18T08:22:39;5.00;;;1.80;;
77880;SDS011;67077;50.298;18.996;2023-02-18T08:25:08;4.40;;;2.00;;
77880;SDS011;67077;50.298;18.996;2023-02-18T08:27:36;4.10;;;2.00;;
77880;SDS011;67077;50.298;18.996;2023-02-18T08:30:05;3.50;;;1.60;;
77880;SDS011;67077;50.298;18.996;2023-02-18T08:32:34;4.10;;;1.90;;
77880;SDS011;67077;50.298;18.996;2023-02-18T08:35:03;4.10;;;2.00;;
77880;SDS011;67077;50.298;18.996;2023-02-18T08:37:32;4.10;;;1.70;;
77880;SDS011;67077;50.298;18.996;2023-02-18T08:40:00;3.30;;;1.70;;
77880;SDS011;67077;50.298;18.996;2023-02-18T08:42:30;4.60;;;1.90;;
77880;SDS011;67077;50.298;18.996;2023-02-18T08:45:00;5.10;;;2.20;;
77880;SDS011;67077;50.298;18.996;2023-02-18T08:47:28;4.20;;;1.80;;
77880;SDS011;67077;50.298;18.996;2023-02-18T08:49:56;3.30;;;1.70;;
77880;SDS011;67077;50.298;18.996;2023-02-18T08:52:25;6.00;;;2.50;;
77880;SDS011;67077;50.298;18.996;2023-02-18T08:54:54;7.10;;;2.40;;
77880;SDS011;67077;50.298;18.996;2023-02-18T08:57:22;7.00;;;2.60;;
77880;SDS011;67077;50.298;18.996;2023-02-18T08:59:50;5.90;;;2.40;;
77880;SDS011;67077;50.298;18.996;2023-02-18T09:02:18;5.20;;;2.10;;
77880;SDS011;67077;50.298;18.996;2023-02-18T09:04:46;5.00;;;2.20;;
77880;SDS011;67077;50.298;18.996;2023-02-18T09:07:26;8.20;;;3.20;;
77880;SDS011;67077;50.298;18.996;2023-02-18T09:09:54;7.40;;;2.70;;
77880;SDS011;67077;50.298;18.996;2023-02-18T09:12:22;6.80;;;2.90;;
77880;SDS011;67077;50.298;18.996;2023-02-18T09:14:50;7.60;;;2.80;;
77880;SDS011;67077;50.298;18.996;2023-02-18T09:17:19;7.70;;;2.90;;
77880;SDS011;67077;50.298;18.996;2023-02-18T09:19:48;6.70;;;2.70;;
77880;SDS011;67077;50.298;18.996;2023-02-18T09:22:20;8.00;;;2.60;;
77880;SDS011;67077;50.298;18.996;2023-02-18T09:24:49;6.40;;;2.30;;
77880;SDS011;67077;50.298;18.996;2023-02-18T09:27:17;7.60;;;2.70;;
77880;SDS011;67077;50.298;18.996;2023-02-18T09:29:45;7.10;;;2.80;;
77880;SDS011;67077;50.298;18.996;2023-02-18T09:32:13;8.50;;;2.60;;
77880;SDS011;67077;50.298;18.996;2023-02-18T09:34:41;11.80;;;3.10;;
77880;SDS011;67077;50.298;18.996;2023-02-18T09:37:10;8.00;;;3.10;;
77880;SDS011;67077;50.298;18.996;2023-02-18T09:39:40;8.10;;;3.20;;
77880;SDS011;67077;50.298;18.996;2023-02-18T09:42:12;13.80;;;3.70;;
77880;SDS011;67077;50.298;18.996;2023-02-18T09:44:48;11.90;;;4.60;;
77880;SDS011;67077;50.298;18.996;2023-02-18T09:47:36;13.80;;;5.00;;
77880;SDS011;67077;50.298;18.996;2023-02-18T09:52:57;11.30;;;4.20;;
77880;SDS011;67077;50.298;18.996;2023-02-18T09:55:28;14.20;;;4.00;;
77880;SDS011;67077;50.298;18.996;2023-02-18T09:58:12;9.40;;;3.30;;
77880;SDS011;67077;50.298;18.996;2023-02-18T10:00:43;11.00;;;3.60;;
77880;SDS011;67077;50.298;18.996;2023-02-18T10:03:22;6.00;;;2.60;;
77880;SDS011;67077;50.298;18.996;2023-02-18T10:08:31;5.40;;;2.20;;
77880;SDS011;67077;50.298;18.996;2023-02-18T10:11:12;6.60;;;2.50;;
77880;SDS011;67077;50.298;18.996;2023-02-18T10:13:49;10.20;;;2.90;;
77880;SDS011;67077;50.298;18.996;2023-02-18T10:16:20;7.20;;;2.70;;
77880;SDS011;67077;50.298;18.996;2023-02-18T10:18:54;7.50;;;2.10;;
77880;SDS011;67077;50.298;18.996;2023-02-18T10:21:27;6.40;;;2.50;;
77880;SDS011;67077;50.298;18.996;2023-02-18T10:26:32;5.40;;;2.50;;
77880;SDS011;67077;50.298;18.996;2023-02-18T10:29:04;5.70;;;2.60;;
77880;SDS011;67077;50.298;18.996;2023-02-18T10:31:43;6.90;;;2.90;;
77880;SDS011;67077;50.298;18.996;2023-02-18T10:40:19;10.50;;;3.90;;
77880;SDS011;67077;50.298;18.996;2023-02-18T10:43:17;7.60;;;2.80;;
77880;SDS011;67077;50.298;18.996;2023-02-18T10:51:38;7.90;;;2.70;;
77880;SDS011;67077;50.298;18.996;2023-02-18T10:54:16;5.10;;;2.40;;
77880;SDS011;67077;50.298;18.996;2023-02-18T10:56:54;6.80;;;3.00;;
77880;SDS011;67077;50.298;18.996;2023-02-18T10:59:32;10.80;;;3.90;;
77880;SDS011;67077;50.298;18.996;2023-02-18T11:02:02;9.60;;;3.50;;
77880;SDS011;67077;50.298;18.996;2023-02-18T11:04:41;8.90;;;3.80;;
77880;SDS011;67077;50.298;18.996;2023-02-18T11:07:12;9.80;;;3.50;;
77880;SDS011;67077;50.298;18.996;2023-02-18T11:09:50;10.70;;;3.30;;
77880;SDS011;67077;50.298;18.996;2023-02-18T11:12:22;9.20;;;3.40;;
77880;SDS011;67077;50.298;18.996;2023-02-18T11:17:42;10.20;;;3.30;;
77880;SDS011;67077;50.298;18.996;2023-02-18T11:20:22;12.30;;;3.70;;
77880;SDS011;67077;50.298;18.996;2023-02-18T11:25:35;11.60;;;4.10;;
77880;SDS011;67077;50.298;18.996;2023-02-18T11:28:21;9.50;;;4.20;;
77880;SDS011;67077;50.298;18.996;2023-02-18T11:30:56;9.80;;;4.50;;
77880;SDS011;67077;50.298;18.996;2023-02-18T11:33:32;11.30;;;4.70;;
77880;SDS011;67077;50.298;18.996;2023-02-18T11:36:24;10.40;;;4.90;;
77880;SDS011;67077;50.298;18.996;2023-02-18T11:38:56;12.50;;;5.10;;
77880;SDS011;67077;50.298;18.996;2023-02-18T11:41:29;11.70;;;5.30;;
77880;SDS011;67077;50.298;18.996;2023-02-18T11:44:18;11.20;;;4.20;;
77880;SDS011;67077;50.298;18.996;2023-02-18T11:47:16;11.60;;;3.90;;
77880;SDS011;67077;50.298;18.996;2023-02-18T11:52:49;13.80;;;4.90;;
77880;SDS011;67077;50.298;18.996;2023-02-18T11:55:22;11.10;;;4.70;;
77880;SDS011;67077;50.298;18.996;2023-02-18T11:57:57;13.90;;;5.20;;
77880;SDS011;67077;50.298;18.996;2023-02-18T12:00:41;11.50;;;5.20;;
77880;SDS011;67077;50.298;18.996;2023-02-18T12:05:59;14.10;;;5.00;;
77880;SDS011;67077;50.298;18.996;2023-02-18T12:08:48;10.10;;;4.30;;
77880;SDS011;67077;50.298;18.996;2023-02-18T12:11:55;11.00;;;4.30;;
77880;SDS011;67077;50.298;18.996;2023-02-18T12:14:21;12.80;;;5.60;;
77880;SDS011;67077;50.298;18.996;2023-02-18T12:17:05;13.60;;;5.30;;
77880;SDS011;67077;50.298;18.996;2023-02-18T12:25:40;14.50;;;5.60;;
77880;SDS011;67077;50.298;18.996;2023-02-18T13:01:57;24.10;;;10.60;;
77880;SDS011;67077;50.298;18.996;2023-02-18T13:05:10;19.20;;;9.70;;
77880;SDS011;67077;50.298;18.996;2023-02-18T13:11:03;20.20;;;9.70;;
77880;SDS011;67077;50.298;18.996;2023-02-18T13:13:36;22.40;;;10.80;;
77880;SDS011;67077;50.298;18.996;2023-02-18T13:16:25;25.20;;;10.70;;
77880;SDS011;67077;50.298;18.996;2023-02-18T13:22:01;27.50;;;11.10;;
77880;SDS011;67077;50.298;18.996;2023-02-18T13:24:36;24.50;;;11.00;;
77880;SDS011;67077;50.298;18.996;2023-02-18T13:27:13;22.90;;;11.00;;
77880;SDS011;67077;50.298;18.996;2023-02-18T13:32:35;27.20;;;12.00;;
77880;SDS011;67077;50.298;18.996;2023-02-18T13:37:50;22.60;;;12.10;;
77880;SDS011;67077;50.298;18.996;2023-02-18T13:42:57;20.40;;;10.10;;
77880;SDS011;67077;50.298;18.996;2023-02-18T13:48:38;20.80;;;9.60;;
77880;SDS011;67077;50.298;18.996;2023-02-18T13:51:13;20.50;;;9.70;;
77880;SDS011;67077;50.298;18.996;2023-02-18T13:53:48;24.20;;;11.20;;
77880;SDS011;67077;50.298;18.996;2023-02-18T13:56:20;24.50;;;12.80;;
77880;SDS011;67077;50.298;18.996;2023-02-18T13:58:58;23.90;;;11.80;;
77880;SDS011;67077;50.298;18.996;2023-02-18T14:01:50;24.50;;;12.20;;
77880;SDS011;67077;50.298;18.996;2023-02-18T14:07:28;25.60;;;12.70;;
77880;SDS011;67077;50.298;18.996;2023-02-18T14:26:08;22.90;;;12.60;;
77880;SDS011;67077;50.298;18.996;2023-02-18T14:36:54;27.00;;;13.50;;
77880;SDS011;67077;50.298;18.996;2023-02-18T14:45:21;24.70;;;12.60;;
77880;SDS011;67077;50.298;18.996;2023-02-18T14:50:30;29.10;;;14.50;;
77880;SDS011;67077;50.298;18.996;2023-02-18T14:53:07;27.50;;;13.30;;
77880;SDS011;67077;50.298;18.996;2023-02-18T14:55:46;25.70;;;13.70;;
77880;SDS011;67077;50.298;18.996;2023-02-18T14:58:23;22.50;;;13.20;;
77880;SDS011;67077;50.298;18.996;2023-02-18T15:00:55;29.80;;;14.70;;
77880;SDS011;67077;50.298;18.996;2023-02-18T15:03:25;25.50;;;13.40;;
77880;SDS011;67077;50.298;18.996;2023-02-18T15:05:55;24.40;;;13.40;;
77880;SDS011;67077;50.298;18.996;2023-02-18T15:08:23;27.20;;;13.70;;
77880;SDS011;67077;50.298;18.996;2023-02-18T15:13:32;31.40;;;16.50;;
77880;SDS011;67077;50.298;18.996;2023-02-18T15:16:06;32.30;;;16.30;;
77880;SDS011;67077;50.298;18.996;2023-02-18T15:18:52;34.10;;;17.20;;
77880;SDS011;67077;50.298;18.996;2023-02-18T15:23:54;31.60;;;17.10;;
77880;SDS011;67077;50.298;18.996;2023-02-18T15:26:44;32.30;;;17.20;;
77880;SDS011;67077;50.298;18.996;2023-02-18T15:29:26;38.70;;;19.50;;
77880;SDS011;67077;50.298;18.996;2023-02-18T15:31:57;35.40;;;20.00;;
77880;SDS011;67077;50.298;18.996;2023-02-18T15:36:56;44.40;;;21.00;;
77880;SDS011;67077;50.298;18.996;2023-02-18T15:39:26;39.90;;;20.10;;
77880;SDS011;67077;50.298;18.996;2023-02-18T15:41:57;29.80;;;14.70;;
77880;SDS011;67077;50.298;18.996;2023-02-18T15:45:18;37.90;;;20.50;;
77880;SDS011;67077;50.298;18.996;2023-02-18T15:47:51;38.30;;;21.10;;
77880;SDS011;67077;50.298;18.996;2023-02-18T15:50:24;38.20;;;21.10;;
77880;SDS011;67077;50.298;18.996;2023-02-18T15:52:59;42.80;;;23.80;;
77880;SDS011;67077;50.298;18.996;2023-02-18T15:55:38;46.70;;;24.20;;
77880;SDS011;67077;50.298;18.996;2023-02-18T15:58:12;37.20;;;19.70;;
77880;SDS011;67077;50.298;18.996;2023-02-18T16:00:52;49.00;;;27.00;;
77880;SDS011;67077;50.298;18.996;2023-02-18T16:03:22;48.40;;;27.60;;
77880;SDS011;67077;50.298;18.996;2023-02-18T16:06:10;55.50;;;29.90;;
77880;SDS011;67077;50.298;18.996;2023-02-18T16:08:39;49.70;;;28.50;;
77880;SDS011;67077;50.298;18.996;2023-02-18T16:11:09;46.70;;;27.20;;
77880;SDS011;67077;50.298;18.996;2023-02-18T16:13:45;42.30;;;23.20;;
77880;SDS011;67077;50.298;18.996;2023-02-18T16:16:23;48.90;;;27.60;;
77880;SDS011;67077;50.298;18.996;2023-02-18T16:18:56;44.00;;;24.50;;
77880;SDS011;67077;50.298;18.996;2023-02-18T16:21:45;49.80;;;27.30;;
77880;SDS011;67077;50.298;18.996;2023-02-18T16:26:53;44.30;;;24.40;;
77880;SDS011;67077;50.298;18.996;2023-02-18T16:29:26;44.40;;;26.00;;
77880;SDS011;67077;50.298;18.996;2023-02-18T16:32:04;42.40;;;25.70;;
77880;SDS011;67077;50.298;18.996;2023-02-18T16:34:32;33.70;;;19.70;;
77880;SDS011;67077;50.298;18.996;2023-02-18T16:37:02;32.80;;;19.90;;
77880;SDS011;67077;50.298;18.996;2023-02-18T16:39:50;33.70;;;20.60;;
77880;SDS011;67077;50.298;18.996;2023-02-18T16:42:21;35.60;;;21.30;;
77880;SDS011;67077;50.298;18.996;2023-02-18T16:44:50;35.80;;;21.10;;
77880;SDS011;67077;50.298;18.996;2023-02-18T16:47:18;34.70;;;19.40;;
77880;SDS011;67077;50.298;18.996;2023-02-18T16:49:48;34.30;;;19.00;;
77880;SDS011;67077;50.298;18.996;2023-02-18T16:52:18;29.80;;;17.10;;
77880;SDS011;67077;50.298;18.996;2023-02-18T16:54:49;32.10;;;17.50;;
77880;SDS011;67077;50.298;18.996;2023-02-18T16:57:20;34.20;;;19.10;;
77880;SDS011;67077;50.298;18.996;2023-02-18T16:59:48;29.20;;;15.40;;
77880;SDS011;67077;50.298;18.996;2023-02-18T17:02:18;28.00;;;15.70;;
77880;SDS011;67077;50.298;18.996;2023-02-18T17:04:49;29.20;;;16.50;;
77880;SDS011;67077;50.298;18.996;2023-02-18T17:07:22;22.90;;;13.40;;
77880;SDS011;67077;50.298;18.996;2023-02-18T17:09:50;21.90;;;13.20;;
77880;SDS011;67077;50.298;18.996;2023-02-18T17:12:19;28.60;;;14.10;;
77880;SDS011;67077;50.298;18.996;2023-02-18T17:14:47;22.00;;;12.60;;
77880;SDS011;67077;50.298;18.996;2023-02-18T17:17:16;21.70;;;12.30;;
77880;SDS011;67077;50.298;18.996;2023-02-18T17:19:49;23.30;;;12.10;;
77880;SDS011;67077;50.298;18.996;2023-02-18T17:22:18;22.50;;;12.40;;
77880;SDS011;67077;50.298;18.996;2023-02-18T17:24:46;19.80;;;11.20;;
77880;SDS011;67077;50.298;18.996;2023-02-18T17:27:18;16.90;;;10.00;;
77880;SDS011;67077;50.298;18.996;2023-02-18T17:29:47;16.40;;;9.80;;
77880;SDS011;67077;50.298;18.996;2023-02-18T17:32:15;16.60;;;9.50;;
77880;SDS011;67077;50.298;18.996;2023-02-18T17:34:44;15.60;;;8.80;;
77880;SDS011;67077;50.298;18.996;2023-02-18T17:37:12;17.80;;;8.90;;
77880;SDS011;67077;50.298;18.996;2023-02-18T17:39:42;15.10;;;8.40;;
77880;SDS011;67077;50.298;18.996;2023-02-18T17:42:13;15.40;;;9.60;;
77880;SDS011;67077;50.298;18.996;2023-02-18T17:44:42;16.30;;;8.80;;
77880;SDS011;67077;50.298;18.996;2023-02-18T17:47:12;14.20;;;8.00;;
77880;SDS011;67077;50.298;18.996;2023-02-18T17:49:41;14.10;;;8.40;;
77880;SDS011;67077;50.298;18.996;2023-02-18T17:52:14;15.60;;;8.70;;
77880;SDS011;67077;50.298;18.996;2023-02-18T17:54:57;16.50;;;8.70;;
77880;SDS011;67077;50.298;18.996;2023-02-18T17:57:25;14.30;;;8.40;;
77880;SDS011;67077;50.298;18.996;2023-02-18T17:59:57;15.30;;;7.80;;
77880;SDS011;67077;50.298;18.996;2023-02-18T18:02:26;14.50;;;8.80;;
77880;SDS011;67077;50.298;18.996;2023-02-18T18:05:05;17.90;;;9.00;;
77880;SDS011;67077;50.298;18.996;2023-02-18T18:07:34;17.50;;;9.50;;
77880;SDS011;67077;50.298;18.996;2023-02-18T18:10:03;16.40;;;8.90;;
77880;SDS011;67077;50.298;18.996;2023-02-18T18:12:32;14.80;;;8.80;;
77880;SDS011;67077;50.298;18.996;2023-02-18T18:15:01;16.60;;;9.70;;
77880;SDS011;67077;50.298;18.996;2023-02-18T18:17:34;15.70;;;9.70;;
77880;SDS011;67077;50.298;18.996;2023-02-18T18:20:03;17.70;;;10.30;;
77880;SDS011;67077;50.298;18.996;2023-02-18T18:22:33;17.10;;;10.20;;
77880;SDS011;67077;50.298;18.996;2023-02-18T18:25:02;19.60;;;11.00;;